Salsbury Cove, Maine
Current Conditions -  °F | °C
As of 11:15 AM on Monday 24 Nov 2014 (Local Time) from KBHB Reporting Station
Overcast Overcast  
Wind Chill: 12°   Ceiling: 800
Heat Index: 12°   Visibility: 5mi
Dew Point: 12°   Wind: 23mph
Humidity: 100%   Direction: 160°SSE
Pressure: 29.81"   Gusts: 32mph
Location:  44.43°N, 68.28°W
Report Text: KBHB 241615Z AUTO 16020G28KT 5SM OVC008 12/12 A2981 RMK AO1 P0004
Loading
Personal Weather Stations






























Interactive Weather Map New forecast layout! Learn more

10-Day Weather Forecast

Advertisements
Track Severe Weather on mobile